sensor_id;sensor_type;location;lat;lon;timestamp;P1;durP1;ratioP1;P2;durP2;ratioP2
65368;SDS011;51970;53.484;49.488;2024-03-23T00:53:07;5.70;;;2.55;;
65368;SDS011;51970;53.484;49.488;2024-03-23T00:55:33;6.38;;;3.83;;
65368;SDS011;51970;53.484;49.488;2024-03-23T00:57:59;13.48;;;2.92;;
65368;SDS011;51970;53.484;49.488;2024-03-23T01:00:26;7.90;;;2.53;;
65368;SDS011;51970;53.484;49.488;2024-03-23T01:02:52;6.20;;;3.53;;
65368;SDS011;51970;53.484;49.488;2024-03-23T01:05:18;5.43;;;2.88;;
65368;SDS011;51970;53.484;49.488;2024-03-23T01:07:44;7.90;;;5.55;;
65368;SDS011;51970;53.484;49.488;2024-03-23T01:10:10;10.30;;;2.85;;
65368;SDS011;51970;53.484;49.488;2024-03-23T01:12:36;7.68;;;2.97;;
65368;SDS011;51970;53.484;49.488;2024-03-23T01:15:02;7.80;;;3.10;;
65368;SDS011;51970;53.484;49.488;2024-03-23T01:17:28;9.40;;;2.53;;
65368;SDS011;51970;53.484;49.488;2024-03-23T01:19:54;9.27;;;2.58;;
65368;SDS011;51970;53.484;49.488;2024-03-23T01:22:21;5.20;;;2.53;;
65368;SDS011;51970;53.484;49.488;2024-03-23T01:24:47;7.13;;;2.70;;
65368;SDS011;51970;53.484;49.488;2024-03-23T01:27:13;6.85;;;2.83;;
65368;SDS011;51970;53.484;49.488;2024-03-23T01:29:40;7.40;;;3.53;;
65368;SDS011;51970;53.484;49.488;2024-03-23T01:32:06;6.88;;;2.88;;
65368;SDS011;51970;53.484;49.488;2024-03-23T01:34:33;7.55;;;2.92;;
65368;SDS011;51970;53.484;49.488;2024-03-23T01:36:59;6.95;;;2.60;;
65368;SDS011;51970;53.484;49.488;2024-03-23T01:39:25;7.15;;;3.83;;
65368;SDS011;51970;53.484;49.488;2024-03-23T01:41:52;7.57;;;3.58;;
65368;SDS011;51970;53.484;49.488;2024-03-23T01:44:18;7.43;;;3.22;;
65368;SDS011;51970;53.484;49.488;2024-03-23T01:46:44;8.45;;;3.45;;
65368;SDS011;51970;53.484;49.488;2024-03-23T01:49:10;9.15;;;3.53;;
65368;SDS011;51970;53.484;49.488;2024-03-23T01:51:37;9.98;;;5.55;;
65368;SDS011;51970;53.484;49.488;2024-03-23T01:54:03;8.18;;;3.45;;
65368;SDS011;51970;53.484;49.488;2024-03-23T01:56:31;8.95;;;3.30;;
65368;SDS011;51970;53.484;49.488;2024-03-23T01:59:01;6.93;;;3.13;;
65368;SDS011;51970;53.484;49.488;2024-03-23T02:01:28;6.53;;;2.83;;
65368;SDS011;51970;53.484;49.488;2024-03-23T02:03:55;6.88;;;3.53;;
65368;SDS011;51970;53.484;49.488;2024-03-23T02:06:21;7.55;;;2.20;;
65368;SDS011;51970;53.484;49.488;2024-03-23T02:08:49;13.25;;;3.40;;
65368;SDS011;51970;53.484;49.488;2024-03-23T02:11:15;23.02;;;3.45;;
65368;SDS011;51970;53.484;49.488;2024-03-23T02:13:41;14.00;;;3.22;;
65368;SDS011;51970;53.484;49.488;2024-03-23T02:16:07;18.63;;;3.03;;
65368;SDS011;51970;53.484;49.488;2024-03-23T02:18:34;12.15;;;3.72;;
65368;SDS011;51970;53.484;49.488;2024-03-23T02:21:00;7.07;;;2.92;;
65368;SDS011;51970;53.484;49.488;2024-03-23T02:23:26;17.73;;;3.03;;
65368;SDS011;51970;53.484;49.488;2024-03-23T02:25:53;9.00;;;3.25;;
65368;SDS011;51970;53.484;49.488;2024-03-23T02:28:19;10.15;;;3.92;;
65368;SDS011;51970;53.484;49.488;2024-03-23T02:30:46;10.30;;;2.70;;
65368;SDS011;51970;53.484;49.488;2024-03-23T02:33:12;7.72;;;3.20;;
65368;SDS011;51970;53.484;49.488;2024-03-23T02:35:39;6.30;;;2.65;;
65368;SDS011;51970;53.484;49.488;2024-03-23T02:38:05;10.00;;;2.35;;
65368;SDS011;51970;53.484;49.488;2024-03-23T02:40:31;10.80;;;7.28;;
65368;SDS011;51970;53.484;49.488;2024-03-23T02:42:57;9.25;;;3.05;;
65368;SDS011;51970;53.484;49.488;2024-03-23T02:45:23;11.80;;;3.67;;
65368;SDS011;51970;53.484;49.488;2024-03-23T02:47:49;7.70;;;3.00;;
65368;SDS011;51970;53.484;49.488;2024-03-23T02:50:18;6.93;;;3.53;;
65368;SDS011;51970;53.484;49.488;2024-03-23T02:52:44;6.90;;;3.25;;
65368;SDS011;51970;53.484;49.488;2024-03-23T02:55:11;9.23;;;3.08;;
65368;SDS011;51970;53.484;49.488;2024-03-23T02:57:37;22.40;;;4.10;;
65368;SDS011;51970;53.484;49.488;2024-03-23T03:00:04;12.60;;;3.03;;
65368;SDS011;51970;53.484;49.488;2024-03-23T03:02:32;14.25;;;3.35;;
65368;SDS011;51970;53.484;49.488;2024-03-23T03:04:58;11.75;;;2.90;;
65368;SDS011;51970;53.484;49.488;2024-03-23T03:07:24;8.18;;;2.70;;
65368;SDS011;51970;53.484;49.488;2024-03-23T03:09:50;11.10;;;2.88;;
65368;SDS011;51970;53.484;49.488;2024-03-23T03:12:17;13.13;;;2.92;;
65368;SDS011;51970;53.484;49.488;2024-03-23T03:14:43;8.23;;;5.40;;
65368;SDS011;51970;53.484;49.488;2024-03-23T03:17:09;14.07;;;2.42;;
65368;SDS011;51970;53.484;49.488;2024-03-23T03:19:38;9.85;;;3.08;;
65368;SDS011;51970;53.484;49.488;2024-03-23T03:22:05;12.45;;;3.65;;
65368;SDS011;51970;53.484;49.488;2024-03-23T03:24:31;10.05;;;2.42;;
65368;SDS011;51970;53.484;49.488;2024-03-23T03:26:57;6.20;;;2.20;;
65368;SDS011;51970;53.484;49.488;2024-03-23T03:29:23;9.32;;;2.33;;
65368;SDS011;51970;53.484;49.488;2024-03-23T03:31:50;8.20;;;4.00;;
65368;SDS011;51970;53.484;49.488;2024-03-23T03:34:16;12.75;;;2.50;;
65368;SDS011;51970;53.484;49.488;2024-03-23T03:36:42;8.13;;;2.33;;
65368;SDS011;51970;53.484;49.488;2024-03-23T03:39:08;9.32;;;2.47;;
65368;SDS011;51970;53.484;49.488;2024-03-23T03:41:35;5.68;;;2.17;;
65368;SDS011;51970;53.484;49.488;2024-03-23T03:44:01;6.95;;;2.80;;
65368;SDS011;51970;53.484;49.488;2024-03-23T03:46:28;6.35;;;2.75;;
65368;SDS011;51970;53.484;49.488;2024-03-23T03:48:54;6.90;;;2.88;;
65368;SDS011;51970;53.484;49.488;2024-03-23T03:51:20;5.85;;;2.53;;
65368;SDS011;51970;53.484;49.488;2024-03-23T03:53:46;7.93;;;2.80;;
65368;SDS011;51970;53.484;49.488;2024-03-23T03:56:13;5.60;;;2.10;;
65368;SDS011;51970;53.484;49.488;2024-03-23T03:58:39;6.63;;;2.63;;
65368;SDS011;51970;53.484;49.488;2024-03-23T04:01:05;7.03;;;2.88;;
65368;SDS011;51970;53.484;49.488;2024-03-23T04:03:32;8.00;;;5.53;;
65368;SDS011;51970;53.484;49.488;2024-03-23T04:05:58;15.23;;;2.53;;
65368;SDS011;51970;53.484;49.488;2024-03-23T04:08:24;10.27;;;3.30;;
65368;SDS011;51970;53.484;49.488;2024-03-23T04:10:50;11.07;;;3.50;;
65368;SDS011;51970;53.484;49.488;2024-03-23T04:13:16;32.95;;;4.90;;
65368;SDS011;51970;53.484;49.488;2024-03-23T04:15:42;17.05;;;3.45;;
65368;SDS011;51970;53.484;49.488;2024-03-23T04:18:08;26.98;;;7.95;;
65368;SDS011;51970;53.484;49.488;2024-03-23T04:20:34;9.48;;;3.65;;
65368;SDS011;51970;53.484;49.488;2024-03-23T04:23:00;10.15;;;3.97;;
65368;SDS011;51970;53.484;49.488;2024-03-23T04:25:26;9.05;;;3.85;;
65368;SDS011;51970;53.484;49.488;2024-03-23T04:27:53;6.38;;;2.75;;
65368;SDS011;51970;53.484;49.488;2024-03-23T04:30:19;9.40;;;2.90;;
65368;SDS011;51970;53.484;49.488;2024-03-23T04:32:46;6.55;;;2.97;;
65368;SDS011;51970;53.484;49.488;2024-03-23T04:35:13;8.10;;;3.05;;
65368;SDS011;51970;53.484;49.488;2024-03-23T04:37:39;9.70;;;4.03;;
65368;SDS011;51970;53.484;49.488;2024-03-23T04:40:08;14.98;;;3.65;;
65368;SDS011;51970;53.484;49.488;2024-03-23T04:42:36;7.53;;;3.58;;
65368;SDS011;51970;53.484;49.488;2024-03-23T04:45:03;9.75;;;4.05;;
65368;SDS011;51970;53.484;49.488;2024-03-23T04:47:31;8.90;;;3.50;;
65368;SDS011;51970;53.484;49.488;2024-03-23T04:49:57;10.63;;;3.50;;
65368;SDS011;51970;53.484;49.488;2024-03-23T04:52:24;8.07;;;3.38;;
65368;SDS011;51970;53.484;49.488;2024-03-23T04:54:50;12.25;;;7.28;;
65368;SDS011;51970;53.484;49.488;2024-03-23T04:57:16;7.10;;;2.97;;
65368;SDS011;51970;53.484;49.488;2024-03-23T04:59:42;6.82;;;4.20;;
65368;SDS011;51970;53.484;49.488;2024-03-23T05:02:08;7.85;;;3.45;;
65368;SDS011;51970;53.484;49.488;2024-03-23T05:04:38;11.48;;;3.63;;
65368;SDS011;51970;53.484;49.488;2024-03-23T05:07:04;11.10;;;3.67;;
65368;SDS011;51970;53.484;49.488;2024-03-23T05:09:30;11.15;;;4.30;;
65368;SDS011;51970;53.484;49.488;2024-03-23T05:11:57;10.98;;;4.25;;
65368;SDS011;51970;53.484;49.488;2024-03-23T05:14:23;9.60;;;4.22;;
65368;SDS011;51970;53.484;49.488;2024-03-23T05:16:49;14.70;;;5.95;;
65368;SDS011;51970;53.484;49.488;2024-03-23T05:19:15;14.63;;;5.07;;
65368;SDS011;51970;53.484;49.488;2024-03-23T05:21:41;11.25;;;4.38;;
65368;SDS011;51970;53.484;49.488;2024-03-23T05:24:08;11.50;;;3.58;;
65368;SDS011;51970;53.484;49.488;2024-03-23T05:26:38;10.95;;;4.93;;
65368;SDS011;51970;53.484;49.488;2024-03-23T05:29:04;13.32;;;4.65;;
65368;SDS011;51970;53.484;49.488;2024-03-23T05:31:32;10.82;;;3.50;;
65368;SDS011;51970;53.484;49.488;2024-03-23T05:33:58;10.10;;;4.30;;
65368;SDS011;51970;53.484;49.488;2024-03-23T05:36:24;9.20;;;3.80;;
65368;SDS011;51970;53.484;49.488;2024-03-23T05:38:50;10.07;;;4.95;;
65368;SDS011;51970;53.484;49.488;2024-03-23T05:41:16;12.43;;;4.32;;
65368;SDS011;51970;53.484;49.488;2024-03-23T05:43:43;9.10;;;3.17;;
65368;SDS011;51970;53.484;49.488;2024-03-23T05:46:09;9.63;;;4.20;;
65368;SDS011;51970;53.484;49.488;2024-03-23T05:48:35;8.43;;;4.18;;
65368;SDS011;51970;53.484;49.488;2024-03-23T05:51:02;9.32;;;4.13;;
65368;SDS011;51970;53.484;49.488;2024-03-23T05:53:28;12.38;;;9.27;;
65368;SDS011;51970;53.484;49.488;2024-03-23T05:56:02;10.05;;;4.43;;
65368;SDS011;51970;53.484;49.488;2024-03-23T05:58:29;13.63;;;5.88;;
65368;SDS011;51970;53.484;49.488;2024-03-23T06:00:57;13.90;;;3.63;;
65368;SDS011;51970;53.484;49.488;2024-03-23T06:03:24;12.05;;;5.18;;
65368;SDS011;51970;53.484;49.488;2024-03-23T06:05:51;14.02;;;3.63;;
65368;SDS011;51970;53.484;49.488;2024-03-23T06:08:18;14.35;;;3.17;;
65368;SDS011;51970;53.484;49.488;2024-03-23T06:10:48;6.68;;;2.70;;
65368;SDS011;51970;53.484;49.488;2024-03-23T06:13:15;8.10;;;3.38;;
65368;SDS011;51970;53.484;49.488;2024-03-23T06:15:42;8.68;;;3.63;;
65368;SDS011;51970;53.484;49.488;2024-03-23T06:18:08;9.02;;;2.83;;
65368;SDS011;51970;53.484;49.488;2024-03-23T06:20:34;11.10;;;3.60;;
65368;SDS011;51970;53.484;49.488;2024-03-23T06:23:01;8.85;;;6.50;;
65368;SDS011;51970;53.484;49.488;2024-03-23T06:25:29;11.60;;;3.80;;
65368;SDS011;51970;53.484;49.488;2024-03-23T06:27:55;8.48;;;3.10;;
65368;SDS011;51970;53.484;49.488;2024-03-23T06:30:24;11.02;;;3.63;;
65368;SDS011;51970;53.484;49.488;2024-03-23T06:32:50;10.00;;;3.75;;
65368;SDS011;51970;53.484;49.488;2024-03-23T06:35:16;12.43;;;4.25;;
65368;SDS011;51970;53.484;49.488;2024-03-23T06:37:42;14.57;;;4.30;;
65368;SDS011;51970;53.484;49.488;2024-03-23T06:40:08;14.13;;;3.90;;
65368;SDS011;51970;53.484;49.488;2024-03-23T06:42:36;7.82;;;3.67;;
65368;SDS011;51970;53.484;49.488;2024-03-23T06:45:03;8.65;;;3.53;;
65368;SDS011;51970;53.484;49.488;2024-03-23T06:47:30;14.30;;;7.30;;
65368;SDS011;51970;53.484;49.488;2024-03-23T06:49:56;13.38;;;5.13;;
65368;SDS011;51970;53.484;49.488;2024-03-23T06:52:23;9.60;;;4.07;;
65368;SDS011;51970;53.484;49.488;2024-03-23T06:54:49;13.35;;;8.35;;
65368;SDS011;51970;53.484;49.488;2024-03-23T06:57:15;84.72;;;18.23;;
65368;SDS011;51970;53.484;49.488;2024-03-23T06:59:41;145.48;;;42.97;;
65368;SDS011;51970;53.484;49.488;2024-03-23T07:02:07;81.65;;;30.52;;
65368;SDS011;51970;53.484;49.488;2024-03-23T07:04:34;22.42;;;7.57;;
65368;SDS011;51970;53.484;49.488;2024-03-23T07:07:01;11.73;;;4.80;;
65368;SDS011;51970;53.484;49.488;2024-03-23T07:09:28;7.32;;;3.25;;
65368;SDS011;51970;53.484;49.488;2024-03-23T07:11:54;10.73;;;3.67;;
65368;SDS011;51970;53.484;49.488;2024-03-23T07:14:22;15.65;;;3.97;;
65368;SDS011;51970;53.484;49.488;2024-03-23T07:16:48;8.48;;;3.45;;
65368;SDS011;51970;53.484;49.488;2024-03-23T07:19:33;8.63;;;6.40;;
65368;SDS011;51970;53.484;49.488;2024-03-23T07:21:59;8.80;;;4.38;;
65368;SDS011;51970;53.484;49.488;2024-03-23T07:24:25;9.13;;;4.05;;
65368;SDS011;51970;53.484;49.488;2024-03-23T07:26:51;8.65;;;3.83;;
65368;SDS011;51970;53.484;49.488;2024-03-23T07:29:21;7.10;;;3.28;;
65368;SDS011;51970;53.484;49.488;2024-03-23T07:31:49;8.85;;;3.40;;
65368;SDS011;51970;53.484;49.488;2024-03-23T07:34:15;7.13;;;3.03;;
65368;SDS011;51970;53.484;49.488;2024-03-23T07:36:41;11.18;;;4.05;;
65368;SDS011;51970;53.484;49.488;2024-03-23T07:39:07;9.15;;;4.25;;
65368;SDS011;51970;53.484;49.488;2024-03-23T07:41:34;14.65;;;4.63;;
65368;SDS011;51970;53.484;49.488;2024-03-23T07:44:00;14.13;;;3.70;;
65368;SDS011;51970;53.484;49.488;2024-03-23T07:46:27;14.45;;;4.07;;
65368;SDS011;51970;53.484;49.488;2024-03-23T07:48:53;8.95;;;4.35;;
65368;SDS011;51970;53.484;49.488;2024-03-23T07:51:22;10.50;;;4.07;;
65368;SDS011;51970;53.484;49.488;2024-03-23T07:53:49;9.38;;;3.33;;
65368;SDS011;51970;53.484;49.488;2024-03-23T07:56:15;7.15;;;3.28;;
65368;SDS011;51970;53.484;49.488;2024-03-23T07:58:43;9.20;;;6.72;;
65368;SDS011;51970;53.484;49.488;2024-03-23T08:01:13;19.95;;;3.58;;
65368;SDS011;51970;53.484;49.488;2024-03-23T08:03:40;7.72;;;2.85;;
65368;SDS011;51970;53.484;49.488;2024-03-23T08:08:39;10.65;;;3.35;;
65368;SDS011;51970;53.484;49.488;2024-03-23T08:11:06;8.50;;;4.05;;
65368;SDS011;51970;53.484;49.488;2024-03-23T08:13:32;10.13;;;4.30;;
65368;SDS011;51970;53.484;49.488;2024-03-23T08:15:59;9.48;;;3.78;;
65368;SDS011;51970;53.484;49.488;2024-03-23T08:18:27;14.02;;;3.72;;
65368;SDS011;51970;53.484;49.488;2024-03-23T08:23:26;11.63;;;6.93;;
65368;SDS011;51970;53.484;49.488;2024-03-23T08:26:26;13.75;;;3.90;;
65368;SDS011;51970;53.484;49.488;2024-03-23T08:28:45;11.90;;;7.32;;
65368;SDS011;51970;53.484;49.488;2024-03-23T08:31:13;11.13;;;3.63;;
65368;SDS011;51970;53.484;49.488;2024-03-23T08:33:42;14.75;;;4.15;;
65368;SDS011;51970;53.484;49.488;2024-03-23T08:36:10;7.07;;;3.03;;
65368;SDS011;51970;53.484;49.488;2024-03-23T08:38:39;8.55;;;3.10;;
65368;SDS011;51970;53.484;49.488;2024-03-23T08:41:07;18.55;;;2.78;;
65368;SDS011;51970;53.484;49.488;2024-03-23T08:43:41;11.30;;;6.78;;
65368;SDS011;51970;53.484;49.488;2024-03-23T08:46:14;7.57;;;3.90;;
65368;SDS011;51970;53.484;49.488;2024-03-23T08:48:42;8.63;;;2.88;;
65368;SDS011;51970;53.484;49.488;2024-03-23T08:51:13;11.10;;;3.55;;
65368;SDS011;51970;53.484;49.488;2024-03-23T08:53:41;8.02;;;3.03;;
65368;SDS011;51970;53.484;49.488;2024-03-23T08:56:07;8.02;;;2.75;;
65368;SDS011;51970;53.484;49.488;2024-03-23T08:58:35;7.88;;;3.28;;
65368;SDS011;51970;53.484;49.488;2024-03-23T09:01:09;9.82;;;2.97;;
65368;SDS011;51970;53.484;49.488;2024-03-23T09:03:39;6.22;;;2.85;;
65368;SDS011;51970;53.484;49.488;2024-03-23T09:06:08;5.85;;;3.28;;
65368;SDS011;51970;53.484;49.488;2024-03-23T09:08:36;5.65;;;2.60;;
65368;SDS011;51970;53.484;49.488;2024-03-23T09:11:04;7.05;;;3.03;;
65368;SDS011;51970;53.484;49.488;2024-03-23T09:13:35;7.93;;;3.40;;
65368;SDS011;51970;53.484;49.488;2024-03-23T09:16:07;11.88;;;2.85;;
65368;SDS011;51970;53.484;49.488;2024-03-23T09:18:35;7.88;;;3.67;;
65368;SDS011;51970;53.484;49.488;2024-03-23T09:21:03;12.15;;;3.22;;
65368;SDS011;51970;53.484;49.488;2024-03-23T09:23:29;8.27;;;2.78;;
65368;SDS011;51970;53.484;49.488;2024-03-23T09:25:55;8.38;;;3.75;;
65368;SDS011;51970;53.484;49.488;2024-03-23T09:28:21;8.20;;;3.13;;
65368;SDS011;51970;53.484;49.488;2024-03-23T09:30:48;9.73;;;3.08;;
65368;SDS011;51970;53.484;49.488;2024-03-23T09:33:14;9.43;;;2.78;;
65368;SDS011;51970;53.484;49.488;2024-03-23T09:35:41;13.82;;;3.15;;
65368;SDS011;51970;53.484;49.488;2024-03-23T09:38:26;7.93;;;2.85;;
65368;SDS011;51970;53.484;49.488;2024-03-23T09:40:53;7.18;;;2.63;;
65368;SDS011;51970;53.484;49.488;2024-03-23T09:43:19;6.35;;;2.35;;
65368;SDS011;51970;53.484;49.488;2024-03-23T09:45:46;6.32;;;2.67;;
65368;SDS011;51970;53.484;49.488;2024-03-23T09:48:13;8.73;;;3.70;;
65368;SDS011;51970;53.484;49.488;2024-03-23T09:50:40;4.95;;;2.35;;
65368;SDS011;51970;53.484;49.488;2024-03-23T09:53:08;10.07;;;2.45;;
65368;SDS011;51970;53.484;49.488;2024-03-23T09:55:37;7.45;;;3.97;;
65368;SDS011;51970;53.484;49.488;2024-03-23T09:58:04;6.20;;;1.83;;
65368;SDS011;51970;53.484;49.488;2024-03-23T10:00:32;8.68;;;2.83;;
65368;SDS011;51970;53.484;49.488;2024-03-23T10:02:59;15.18;;;3.53;;
65368;SDS011;51970;53.484;49.488;2024-03-23T10:05:30;6.80;;;2.72;;
65368;SDS011;51970;53.484;49.488;2024-03-23T10:08:17;10.55;;;2.75;;
65368;SDS011;51970;53.484;49.488;2024-03-23T10:10:45;6.38;;;3.03;;
65368;SDS011;51970;53.484;49.488;2024-03-23T10:13:27;9.05;;;2.47;;
65368;SDS011;51970;53.484;49.488;2024-03-23T10:15:57;7.45;;;2.33;;
65368;SDS011;51970;53.484;49.488;2024-03-23T10:18:25;8.23;;;2.20;;
65368;SDS011;51970;53.484;49.488;2024-03-23T10:23:32;7.28;;;2.58;;
65368;SDS011;51970;53.484;49.488;2024-03-23T10:26:21;6.78;;;2.55;;
65368;SDS011;51970;53.484;49.488;2024-03-23T10:28:54;6.25;;;2.08;;
65368;SDS011;51970;53.484;49.488;2024-03-23T10:31:27;7.30;;;2.05;;
65368;SDS011;51970;53.484;49.488;2024-03-23T10:33:56;6.53;;;2.58;;
65368;SDS011;51970;53.484;49.488;2024-03-23T10:36:23;7.03;;;2.00;;
65368;SDS011;51970;53.484;49.488;2024-03-23T10:38:51;9.20;;;3.78;;
65368;SDS011;51970;53.484;49.488;2024-03-23T10:41:19;7.35;;;3.88;;
65368;SDS011;51970;53.484;49.488;2024-03-23T10:43:47;7.40;;;2.85;;
65368;SDS011;51970;53.484;49.488;2024-03-23T10:46:15;9.52;;;3.95;;
65368;SDS011;51970;53.484;49.488;2024-03-23T10:48:41;9.80;;;2.45;;
65368;SDS011;51970;53.484;49.488;2024-03-23T10:51:09;8.30;;;2.40;;
65368;SDS011;51970;53.484;49.488;2024-03-23T10:53:36;7.05;;;2.75;;
65368;SDS011;51970;53.484;49.488;2024-03-23T10:56:02;9.57;;;2.20;;
65368;SDS011;51970;53.484;49.488;2024-03-23T10:58:40;7.25;;;3.15;;
65368;SDS011;51970;53.484;49.488;2024-03-23T11:01:13;17.63;;;3.05;;
65368;SDS011;51970;53.484;49.488;2024-03-23T11:03:45;6.45;;;1.95;;
65368;SDS011;51970;53.484;49.488;2024-03-23T11:06:35;5.75;;;2.22;;
65368;SDS011;51970;53.484;49.488;2024-03-23T11:09:48;10.43;;;6.13;;
65368;SDS011;51970;53.484;49.488;2024-03-23T11:12:46;9.40;;;2.90;;
65368;SDS011;51970;53.484;49.488;2024-03-23T11:14:50;8.30;;;2.97;;
65368;SDS011;51970;53.484;49.488;2024-03-23T11:17:18;6.70;;;2.45;;
65368;SDS011;51970;53.484;49.488;2024-03-23T11:19:58;7.97;;;2.60;;
65368;SDS011;51970;53.484;49.488;2024-03-23T11:25:11;5.72;;;2.35;;
65368;SDS011;51970;53.484;49.488;2024-03-23T11:27:38;11.05;;;2.10;;
65368;SDS011;51970;53.484;49.488;2024-03-23T11:30:14;6.78;;;4.80;;
65368;SDS011;51970;53.484;49.488;2024-03-23T11:32:45;10.43;;;5.07;;
65368;SDS011;51970;53.484;49.488;2024-03-23T11:35:25;10.30;;;2.90;;
65368;SDS011;51970;53.484;49.488;2024-03-23T11:38:02;8.95;;;2.97;;
65368;SDS011;51970;53.484;49.488;2024-03-23T11:40:28;6.10;;;2.45;;
65368;SDS011;51970;53.484;49.488;2024-03-23T11:43:00;9.15;;;2.75;;
65368;SDS011;51970;53.484;49.488;2024-03-23T11:45:28;10.98;;;2.83;;
65368;SDS011;51970;53.484;49.488;2024-03-23T11:48:01;9.45;;;5.55;;
65368;SDS011;51970;53.484;49.488;2024-03-23T11:50:41;7.47;;;2.67;;
65368;SDS011;51970;53.484;49.488;2024-03-23T11:53:13;7.40;;;3.65;;
65368;SDS011;51970;53.484;49.488;2024-03-23T11:58:16;8.57;;;2.45;;
65368;SDS011;51970;53.484;49.488;2024-03-23T12:01:03;6.90;;;2.95;;
65368;SDS011;51970;53.484;49.488;2024-03-23T12:03:30;11.30;;;2.95;;
65368;SDS011;51970;53.484;49.488;2024-03-23T12:06:00;6.95;;;2.60;;
65368;SDS011;51970;53.484;49.488;2024-03-23T12:08:31;9.57;;;3.25;;
65368;SDS011;51970;53.484;49.488;2024-03-23T12:13:38;7.28;;;2.88;;
65368;SDS011;51970;53.484;49.488;2024-03-23T12:18:48;8.85;;;3.38;;
65368;SDS011;51970;53.484;49.488;2024-03-23T12:21:16;7.68;;;3.65;;
65368;SDS011;51970;53.484;49.488;2024-03-23T12:23:43;7.03;;;3.13;;
65368;SDS011;51970;53.484;49.488;2024-03-23T12:26:19;8.85;;;3.28;;
65368;SDS011;51970;53.484;49.488;2024-03-23T12:28:45;5.97;;;3.00;;
65368;SDS011;51970;53.484;49.488;2024-03-23T12:31:12;6.63;;;3.50;;
65368;SDS011;51970;53.484;49.488;2024-03-23T12:33:38;10.55;;;3.25;;
65368;SDS011;51970;53.484;49.488;2024-03-23T12:36:04;6.45;;;2.55;;
65368;SDS011;51970;53.484;49.488;2024-03-23T12:38:31;7.20;;;2.35;;
65368;SDS011;51970;53.484;49.488;2024-03-23T12:40:57;6.88;;;3.47;;
65368;SDS011;51970;53.484;49.488;2024-03-23T12:43:23;7.78;;;3.22;;
65368;SDS011;51970;53.484;49.488;2024-03-23T12:45:50;7.13;;;2.92;;
65368;SDS011;51970;53.484;49.488;2024-03-23T12:48:16;6.65;;;3.47;;
65368;SDS011;51970;53.484;49.488;2024-03-23T12:50:42;7.15;;;3.10;;
65368;SDS011;51970;53.484;49.488;2024-03-23T12:53:09;7.78;;;3.55;;
65368;SDS011;51970;53.484;49.488;2024-03-23T12:55:35;8.38;;;3.53;;
65368;SDS011;51970;53.484;49.488;2024-03-23T12:58:01;8.20;;;6.35;;
65368;SDS011;51970;53.484;49.488;2024-03-23T13:00:28;8.20;;;4.40;;
65368;SDS011;51970;53.484;49.488;2024-03-23T13:02:56;8.68;;;2.70;;
65368;SDS011;51970;53.484;49.488;2024-03-23T13:05:22;12.90;;;5.97;;
65368;SDS011;51970;53.484;49.488;2024-03-23T13:07:48;6.95;;;3.35;;
65368;SDS011;51970;53.484;49.488;2024-03-23T13:10:14;4.93;;;2.17;;
65368;SDS011;51970;53.484;49.488;2024-03-23T13:12:41;5.78;;;3.03;;
65368;SDS011;51970;53.484;49.488;2024-03-23T13:15:08;9.10;;;3.28;;
65368;SDS011;51970;53.484;49.488;2024-03-23T13:17:34;8.55;;;3.55;;
65368;SDS011;51970;53.484;49.488;2024-03-23T13:20:00;5.63;;;2.38;;
65368;SDS011;51970;53.484;49.488;2024-03-23T13:22:27;5.85;;;3.17;;
65368;SDS011;51970;53.484;49.488;2024-03-23T13:24:53;8.82;;;6.03;;
65368;SDS011;51970;53.484;49.488;2024-03-23T13:27:19;6.32;;;3.00;;
65368;SDS011;51970;53.484;49.488;2024-03-23T13:29:46;12.38;;;3.22;;
65368;SDS011;51970;53.484;49.488;2024-03-23T13:32:12;5.93;;;2.45;;
65368;SDS011;51970;53.484;49.488;2024-03-23T13:34:39;7.80;;;3.28;;
65368;SDS011;51970;53.484;49.488;2024-03-23T13:37:05;6.70;;;2.58;;
65368;SDS011;51970;53.484;49.488;2024-03-23T13:39:32;13.93;;;6.80;;
65368;SDS011;51970;53.484;49.488;2024-03-23T13:41:59;7.22;;;3.50;;
65368;SDS011;51970;53.484;49.488;2024-03-23T13:44:25;6.88;;;4.00;;
65368;SDS011;51970;53.484;49.488;2024-03-23T13:46:51;7.50;;;3.95;;
65368;SDS011;51970;53.484;49.488;2024-03-23T13:49:28;8.63;;;3.17;;
65368;SDS011;51970;53.484;49.488;2024-03-23T13:51:57;7.05;;;4.00;;
65368;SDS011;51970;53.484;49.488;2024-03-23T13:54:24;9.50;;;3.28;;
65368;SDS011;51970;53.484;49.488;2024-03-23T13:56:51;6.25;;;3.22;;
65368;SDS011;51970;53.484;49.488;2024-03-23T13:59:18;6.78;;;3.33;;
65368;SDS011;51970;53.484;49.488;2024-03-23T14:01:44;10.68;;;3.63;;
65368;SDS011;51970;53.484;49.488;2024-03-23T14:04:13;7.10;;;2.90;;
65368;SDS011;51970;53.484;49.488;2024-03-23T14:06:45;6.03;;;2.95;;
65368;SDS011;51970;53.484;49.488;2024-03-23T14:09:12;7.75;;;3.22;;
65368;SDS011;51970;53.484;49.488;2024-03-23T14:11:39;8.40;;;3.05;;
65368;SDS011;51970;53.484;49.488;2024-03-23T14:14:08;7.85;;;4.45;;
65368;SDS011;51970;53.484;49.488;2024-03-23T14:16:35;6.43;;;2.97;;
65368;SDS011;51970;53.484;49.488;2024-03-23T14:19:01;6.55;;;2.55;;
65368;SDS011;51970;53.484;49.488;2024-03-23T14:21:27;7.60;;;3.55;;
65368;SDS011;51970;53.484;49.488;2024-03-23T14:23:53;9.25;;;3.95;;
65368;SDS011;51970;53.484;49.488;2024-03-23T14:26:20;6.30;;;2.50;;
65368;SDS011;51970;53.484;49.488;2024-03-23T14:28:47;6.80;;;2.85;;
65368;SDS011;51970;53.484;49.488;2024-03-23T14:31:15;6.32;;;2.63;;
65368;SDS011;51970;53.484;49.488;2024-03-23T14:33:41;7.07;;;3.08;;
65368;SDS011;51970;53.484;49.488;2024-03-23T14:36:14;6.07;;;2.45;;
65368;SDS011;51970;53.484;49.488;2024-03-23T14:38:50;7.25;;;4.22;;
65368;SDS011;51970;53.484;49.488;2024-03-23T14:41:18;8.25;;;3.08;;
65368;SDS011;51970;53.484;49.488;2024-03-23T14:43:44;9.80;;;3.80;;
65368;SDS011;51970;53.484;49.488;2024-03-23T14:46:13;7.15;;;3.35;;
65368;SDS011;51970;53.484;49.488;2024-03-23T14:48:40;6.75;;;2.70;;
65368;SDS011;51970;53.484;49.488;2024-03-23T14:51:08;7.28;;;3.28;;
65368;SDS011;51970;53.484;49.488;2024-03-23T14:53:35;7.15;;;3.05;;
65368;SDS011;51970;53.484;49.488;2024-03-23T14:56:06;7.32;;;3.25;;
65368;SDS011;51970;53.484;49.488;2024-03-23T14:58:33;12.77;;;5.63;;
65368;SDS011;51970;53.484;49.488;2024-03-23T15:01:06;6.13;;;2.60;;
65368;SDS011;51970;53.484;49.488;2024-03-23T15:03:39;7.88;;;2.30;;
65368;SDS011;51970;53.484;49.488;2024-03-23T15:06:06;8.57;;;5.95;;
65368;SDS011;51970;53.484;49.488;2024-03-23T15:08:34;6.07;;;2.63;;
65368;SDS011;51970;53.484;49.488;2024-03-23T15:11:02;8.27;;;3.25;;
65368;SDS011;51970;53.484;49.488;2024-03-23T15:13:34;6.25;;;2.83;;
65368;SDS011;51970;53.484;49.488;2024-03-23T15:16:01;6.20;;;2.65;;
65368;SDS011;51970;53.484;49.488;2024-03-23T15:18:29;8.80;;;3.17;;
65368;SDS011;51970;53.484;49.488;2024-03-23T15:20:57;11.48;;;6.28;;
65368;SDS011;51970;53.484;49.488;2024-03-23T15:23:28;7.20;;;4.80;;
65368;SDS011;51970;53.484;49.488;2024-03-23T15:25:55;7.20;;;3.15;;
65368;SDS011;51970;53.484;49.488;2024-03-23T15:28:26;7.53;;;2.92;;
65368;SDS011;51970;53.484;49.488;2024-03-23T15:31:07;6.35;;;3.47;;
65368;SDS011;51970;53.484;49.488;2024-03-23T15:33:37;6.43;;;2.88;;
65368;SDS011;51970;53.484;49.488;2024-03-23T15:36:05;9.05;;;6.07;;
65368;SDS011;51970;53.484;49.488;2024-03-23T15:38:32;6.38;;;3.15;;
65368;SDS011;51970;53.484;49.488;2024-03-23T15:40:59;6.78;;;3.17;;
65368;SDS011;51970;53.484;49.488;2024-03-23T15:43:26;9.45;;;3.42;;
65368;SDS011;51970;53.484;49.488;2024-03-23T15:45:59;7.15;;;4.07;;